sensor_id;sensor_type;location;lat;lon;timestamp;P1;P2;P0
49064;PMS5003;34876;51.464;-0.150;2023-02-15T00:01:35;38;37;
49064;PMS5003;34876;51.464;-0.150;2023-02-15T00:04:05;38;34;
49064;PMS5003;34876;51.464;-0.150;2023-02-15T00:06:35;36;35;
49064;PMS5003;34876;51.464;-0.150;2023-02-15T00:09:04;38;37;
49064;PMS5003;34876;51.464;-0.150;2023-02-15T00:11:33;33;32;
49064;PMS5003;34876;51.464;-0.150;2023-02-15T00:14:03;36;34;
49064;PMS5003;34876;51.464;-0.150;2023-02-15T00:16:32;38;34;
49064;PMS5003;34876;51.464;-0.150;2023-02-15T00:19:02;37;37;
49064;PMS5003;34876;51.464;-0.150;2023-02-15T00:21:32;42;37;
49064;PMS5003;34876;51.464;-0.150;2023-02-15T00:24:03;38;36;
49064;PMS5003;34876;51.464;-0.150;2023-02-15T00:26:34;40;34;
49064;PMS5003;34876;51.464;-0.150;2023-02-15T00:29:03;34;33;
49064;PMS5003;34876;51.464;-0.150;2023-02-15T00:31:34;39;36;
49064;PMS5003;34876;51.464;-0.150;2023-02-15T00:34:04;38;35;
49064;PMS5003;34876;51.464;-0.150;2023-02-15T00:36:35;42;35;
49064;PMS5003;34876;51.464;-0.150;2023-02-15T00:39:05;44;38;
49064;PMS5003;34876;51.464;-0.150;2023-02-15T00:41:36;39;36;
49064;PMS5003;34876;51.464;-0.150;2023-02-15T00:44:05;33;32;
49064;PMS5003;34876;51.464;-0.150;2023-02-15T00:46:35;37;34;
49064;PMS5003;34876;51.464;-0.150;2023-02-15T00:49:04;44;39;
49064;PMS5003;34876;51.464;-0.150;2023-02-15T00:51:34;37;37;
49064;PMS5003;34876;51.464;-0.150;2023-02-15T00:54:03;41;40;
49064;PMS5003;34876;51.464;-0.150;2023-02-15T00:56:32;39;36;
49064;PMS5003;34876;51.464;-0.150;2023-02-15T00:59:01;39;37;
49064;PMS5003;34876;51.464;-0.150;2023-02-15T01:03:36;48;45;
49064;PMS5003;34876;51.464;-0.150;2023-02-15T01:06:05;45;43;
49064;PMS5003;34876;51.464;-0.150;2023-02-15T01:08:34;52;48;
49064;PMS5003;34876;51.464;-0.150;2023-02-15T01:11:03;50;49;
49064;PMS5003;34876;51.464;-0.150;2023-02-15T01:13:33;53;48;
49064;PMS5003;34876;51.464;-0.150;2023-02-15T01:16:03;47;44;
49064;PMS5003;34876;51.464;-0.150;2023-02-15T01:18:34;49;44;
49064;PMS5003;34876;51.464;-0.150;2023-02-15T01:21:09;46;41;
49064;PMS5003;34876;51.464;-0.150;2023-02-15T01:23:39;55;52;
49064;PMS5003;34876;51.464;-0.150;2023-02-15T01:26:09;48;45;
49064;PMS5003;34876;51.464;-0.150;2023-02-15T01:28:39;47;45;
49064;PMS5003;34876;51.464;-0.150;2023-02-15T01:31:09;49;46;
49064;PMS5003;34876;51.464;-0.150;2023-02-15T01:33:40;51;47;
49064;PMS5003;34876;51.464;-0.150;2023-02-15T01:36:10;57;52;
49064;PMS5003;34876;51.464;-0.150;2023-02-15T01:38:40;51;48;
49064;PMS5003;34876;51.464;-0.150;2023-02-15T01:41:10;53;49;
49064;PMS5003;34876;51.464;-0.150;2023-02-15T01:43:41;52;51;
49064;PMS5003;34876;51.464;-0.150;2023-02-15T01:46:12;50;46;
49064;PMS5003;34876;51.464;-0.150;2023-02-15T01:48:45;53;50;
49064;PMS5003;34876;51.464;-0.150;2023-02-15T01:51:16;51;50;
49064;PMS5003;34876;51.464;-0.150;2023-02-15T01:53:49;54;53;
49064;PMS5003;34876;51.464;-0.150;2023-02-15T01:56:21;52;49;
49064;PMS5003;34876;51.464;-0.150;2023-02-15T01:58:54;54;49;
49064;PMS5003;34876;51.464;-0.150;2023-02-15T02:01:26;50;47;
49064;PMS5003;34876;51.464;-0.150;2023-02-15T02:03:59;54;52;
49064;PMS5003;34876;51.464;-0.150;2023-02-15T02:06:33;56;50;
49064;PMS5003;34876;51.464;-0.150;2023-02-15T02:09:06;52;51;
49064;PMS5003;34876;51.464;-0.150;2023-02-15T02:11:35;52;51;
49064;PMS5003;34876;51.464;-0.150;2023-02-15T02:14:07;59;51;
49064;PMS5003;34876;51.464;-0.150;2023-02-15T02:16:39;54;53;
49064;PMS5003;34876;51.464;-0.150;2023-02-15T02:19:24;46;46;
49064;PMS5003;34876;51.464;-0.150;2023-02-15T02:22:17;53;50;
49064;PMS5003;34876;51.464;-0.150;2023-02-15T02:28:27;57;51;
49064;PMS5003;34876;51.464;-0.150;2023-02-15T02:31:18;53;49;
49064;PMS5003;34876;51.464;-0.150;2023-02-15T02:34:05;55;49;
49064;PMS5003;34876;51.464;-0.150;2023-02-15T02:36:48;54;49;
49064;PMS5003;34876;51.464;-0.150;2023-02-15T02:39:25;48;46;
49064;PMS5003;34876;51.464;-0.150;2023-02-15T02:42:05;47;46;
49064;PMS5003;34876;51.464;-0.150;2023-02-15T02:44:46;57;51;
49064;PMS5003;34876;51.464;-0.150;2023-02-15T02:47:19;52;47;
49064;PMS5003;34876;51.464;-0.150;2023-02-15T02:49:58;51;47;
49064;PMS5003;34876;51.464;-0.150;2023-02-15T02:52:34;53;50;
49064;PMS5003;34876;51.464;-0.150;2023-02-15T02:55:06;51;47;
49064;PMS5003;34876;51.464;-0.150;2023-02-15T02:57:41;55;53;
49064;PMS5003;34876;51.464;-0.150;2023-02-15T03:00:27;56;51;
49064;PMS5003;34876;51.464;-0.150;2023-02-15T03:03:10;47;47;
49064;PMS5003;34876;51.464;-0.150;2023-02-15T03:05:47;52;50;
49064;PMS5003;34876;51.464;-0.150;2023-02-15T03:08:21;49;47;
49064;PMS5003;34876;51.464;-0.150;2023-02-15T03:10:57;54;49;
49064;PMS5003;34876;51.464;-0.150;2023-02-15T03:13:29;55;48;
49064;PMS5003;34876;51.464;-0.150;2023-02-15T03:16:05;52;50;
49064;PMS5003;34876;51.464;-0.150;2023-02-15T03:18:43;52;49;
49064;PMS5003;34876;51.464;-0.150;2023-02-15T03:21:15;46;44;
49064;PMS5003;34876;51.464;-0.150;2023-02-15T03:23:45;47;43;
49064;PMS5003;34876;51.464;-0.150;2023-02-15T03:26:16;52;48;
49064;PMS5003;34876;51.464;-0.150;2023-02-15T03:28:48;50;49;
49064;PMS5003;34876;51.464;-0.150;2023-02-15T03:31:21;52;49;
49064;PMS5003;34876;51.464;-0.150;2023-02-15T03:33:55;49;45;
49064;PMS5003;34876;51.464;-0.150;2023-02-15T03:36:28;48;45;
49064;PMS5003;34876;51.464;-0.150;2023-02-15T03:39:09;48;47;
49064;PMS5003;34876;51.464;-0.150;2023-02-15T03:41:48;45;42;
49064;PMS5003;34876;51.464;-0.150;2023-02-15T03:44:24;56;51;
49064;PMS5003;34876;51.464;-0.150;2023-02-15T03:46:58;48;44;
49064;PMS5003;34876;51.464;-0.150;2023-02-15T03:49:36;55;51;
49064;PMS5003;34876;51.464;-0.150;2023-02-15T03:52:09;55;48;
49064;PMS5003;34876;51.464;-0.150;2023-02-15T03:54:48;47;46;
49064;PMS5003;34876;51.464;-0.150;2023-02-15T03:57:19;50;46;
49064;PMS5003;34876;51.464;-0.150;2023-02-15T03:59:50;51;48;
49064;PMS5003;34876;51.464;-0.150;2023-02-15T04:02:21;52;47;
49064;PMS5003;34876;51.464;-0.150;2023-02-15T04:04:56;46;45;
49064;PMS5003;34876;51.464;-0.150;2023-02-15T04:07:26;49;48;
49064;PMS5003;34876;51.464;-0.150;2023-02-15T04:09:56;45;42;
49064;PMS5003;34876;51.464;-0.150;2023-02-15T04:12:25;45;44;
49064;PMS5003;34876;51.464;-0.150;2023-02-15T04:14:55;50;45;
49064;PMS5003;34876;51.464;-0.150;2023-02-15T04:17:25;52;46;
49064;PMS5003;34876;51.464;-0.150;2023-02-15T04:19:54;51;47;
49064;PMS5003;34876;51.464;-0.150;2023-02-15T04:22:24;46;43;
49064;PMS5003;34876;51.464;-0.150;2023-02-15T04:24:52;48;44;
49064;PMS5003;34876;51.464;-0.150;2023-02-15T04:27:22;48;47;
49064;PMS5003;34876;51.464;-0.150;2023-02-15T04:29:51;49;44;
49064;PMS5003;34876;51.464;-0.150;2023-02-15T04:32:21;52;48;
49064;PMS5003;34876;51.464;-0.150;2023-02-15T04:34:50;50;48;
49064;PMS5003;34876;51.464;-0.150;2023-02-15T04:37:20;45;44;
49064;PMS5003;34876;51.464;-0.150;2023-02-15T04:39:49;52;47;
49064;PMS5003;34876;51.464;-0.150;2023-02-15T04:42:18;51;45;
49064;PMS5003;34876;51.464;-0.150;2023-02-15T04:44:47;51;43;
49064;PMS5003;34876;51.464;-0.150;2023-02-15T04:47:16;48;44;
49064;PMS5003;34876;51.464;-0.150;2023-02-15T04:49:46;51;48;
49064;PMS5003;34876;51.464;-0.150;2023-02-15T04:52:15;53;49;
49064;PMS5003;34876;51.464;-0.150;2023-02-15T04:54:44;54;47;
49064;PMS5003;34876;51.464;-0.150;2023-02-15T04:57:13;47;44;
49064;PMS5003;34876;51.464;-0.150;2023-02-15T04:59:43;46;45;
49064;PMS5003;34876;51.464;-0.150;2023-02-15T05:02:13;50;45;
49064;PMS5003;34876;51.464;-0.150;2023-02-15T05:04:42;49;47;
49064;PMS5003;34876;51.464;-0.150;2023-02-15T05:07:11;41;41;
49064;PMS5003;34876;51.464;-0.150;2023-02-15T05:09:41;52;50;
49064;PMS5003;34876;51.464;-0.150;2023-02-15T05:12:31;54;45;
49064;PMS5003;34876;51.464;-0.150;2023-02-15T05:14:59;52;50;
49064;PMS5003;34876;51.464;-0.150;2023-02-15T05:17:28;48;45;
49064;PMS5003;34876;51.464;-0.150;2023-02-15T05:19:58;43;42;
49064;PMS5003;34876;51.464;-0.150;2023-02-15T05:22:28;49;46;
49064;PMS5003;34876;51.464;-0.150;2023-02-15T05:24:57;50;46;
49064;PMS5003;34876;51.464;-0.150;2023-02-15T05:27:26;51;43;
49064;PMS5003;34876;51.464;-0.150;2023-02-15T05:29:55;51;45;
49064;PMS5003;34876;51.464;-0.150;2023-02-15T05:32:24;56;53;
49064;PMS5003;34876;51.464;-0.150;2023-02-15T05:34:54;50;48;
49064;PMS5003;34876;51.464;-0.150;2023-02-15T05:37:23;57;50;
49064;PMS5003;34876;51.464;-0.150;2023-02-15T05:39:53;46;45;
49064;PMS5003;34876;51.464;-0.150;2023-02-15T05:42:22;50;45;
49064;PMS5003;34876;51.464;-0.150;2023-02-15T05:44:51;49;46;
49064;PMS5003;34876;51.464;-0.150;2023-02-15T05:47:20;54;48;
49064;PMS5003;34876;51.464;-0.150;2023-02-15T05:49:49;51;44;
49064;PMS5003;34876;51.464;-0.150;2023-02-15T05:52:18;45;41;
49064;PMS5003;34876;51.464;-0.150;2023-02-15T05:54:47;51;50;
49064;PMS5003;34876;51.464;-0.150;2023-02-15T05:57:17;48;46;
49064;PMS5003;34876;51.464;-0.150;2023-02-15T05:59:46;52;48;
49064;PMS5003;34876;51.464;-0.150;2023-02-15T06:02:15;45;41;
49064;PMS5003;34876;51.464;-0.150;2023-02-15T06:04:44;46;43;
49064;PMS5003;34876;51.464;-0.150;2023-02-15T06:07:13;46;43;
49064;PMS5003;34876;51.464;-0.150;2023-02-15T06:09:42;52;48;
49064;PMS5003;34876;51.464;-0.150;2023-02-15T06:12:11;40;38;
49064;PMS5003;34876;51.464;-0.150;2023-02-15T06:14:40;47;42;
49064;PMS5003;34876;51.464;-0.150;2023-02-15T06:17:10;51;49;
49064;PMS5003;34876;51.464;-0.150;2023-02-15T06:19:40;51;48;
49064;PMS5003;34876;51.464;-0.150;2023-02-15T06:22:10;45;42;
49064;PMS5003;34876;51.464;-0.150;2023-02-15T06:24:39;52;47;
49064;PMS5003;34876;51.464;-0.150;2023-02-15T06:27:09;56;51;
49064;PMS5003;34876;51.464;-0.150;2023-02-15T06:29:38;58;52;
49064;PMS5003;34876;51.464;-0.150;2023-02-15T06:32:07;47;44;
49064;PMS5003;34876;51.464;-0.150;2023-02-15T06:34:36;54;47;
49064;PMS5003;34876;51.464;-0.150;2023-02-15T06:37:05;43;42;
49064;PMS5003;34876;51.464;-0.150;2023-02-15T06:39:35;50;48;
49064;PMS5003;34876;51.464;-0.150;2023-02-15T06:42:04;49;48;
49064;PMS5003;34876;51.464;-0.150;2023-02-15T06:44:33;51;48;
49064;PMS5003;34876;51.464;-0.150;2023-02-15T06:47:01;52;49;
49064;PMS5003;34876;51.464;-0.150;2023-02-15T06:49:30;48;46;
49064;PMS5003;34876;51.464;-0.150;2023-02-15T06:51:59;54;50;
49064;PMS5003;34876;51.464;-0.150;2023-02-15T06:54:29;51;49;
49064;PMS5003;34876;51.464;-0.150;2023-02-15T06:56:58;48;46;
49064;PMS5003;34876;51.464;-0.150;2023-02-15T06:59:27;57;51;
49064;PMS5003;34876;51.464;-0.150;2023-02-15T07:01:56;51;48;
49064;PMS5003;34876;51.464;-0.150;2023-02-15T07:04:24;48;46;
49064;PMS5003;34876;51.464;-0.150;2023-02-15T07:06:53;49;49;
49064;PMS5003;34876;51.464;-0.150;2023-02-15T07:09:23;55;50;
49064;PMS5003;34876;51.464;-0.150;2023-02-15T07:11:52;53;48;
49064;PMS5003;34876;51.464;-0.150;2023-02-15T07:14:21;57;52;
49064;PMS5003;34876;51.464;-0.150;2023-02-15T07:16:51;52;49;
49064;PMS5003;34876;51.464;-0.150;2023-02-15T07:19:20;53;49;
49064;PMS5003;34876;51.464;-0.150;2023-02-15T07:21:49;52;48;
49064;PMS5003;34876;51.464;-0.150;2023-02-15T07:24:18;49;43;
49064;PMS5003;34876;51.464;-0.150;2023-02-15T07:26:47;52;50;
49064;PMS5003;34876;51.464;-0.150;2023-02-15T07:29:17;59;51;
49064;PMS5003;34876;51.464;-0.150;2023-02-15T07:31:46;56;52;
49064;PMS5003;34876;51.464;-0.150;2023-02-15T07:34:15;53;47;
49064;PMS5003;34876;51.464;-0.150;2023-02-15T07:36:44;47;47;
49064;PMS5003;34876;51.464;-0.150;2023-02-15T07:39:13;49;48;
49064;PMS5003;34876;51.464;-0.150;2023-02-15T07:41:42;49;44;
49064;PMS5003;34876;51.464;-0.150;2023-02-15T07:44:11;53;52;
49064;PMS5003;34876;51.464;-0.150;2023-02-15T07:46:41;51;48;
49064;PMS5003;34876;51.464;-0.150;2023-02-15T07:49:10;59;50;
49064;PMS5003;34876;51.464;-0.150;2023-02-15T07:51:39;56;51;
49064;PMS5003;34876;51.464;-0.150;2023-02-15T07:54:08;51;50;
49064;PMS5003;34876;51.464;-0.150;2023-02-15T07:56:37;51;49;
49064;PMS5003;34876;51.464;-0.150;2023-02-15T07:59:06;50;49;
49064;PMS5003;34876;51.464;-0.150;2023-02-15T08:01:36;46;45;
49064;PMS5003;34876;51.464;-0.150;2023-02-15T08:04:07;55;50;
49064;PMS5003;34876;51.464;-0.150;2023-02-15T08:06:37;56;51;
49064;PMS5003;34876;51.464;-0.150;2023-02-15T08:09:07;55;51;
49064;PMS5003;34876;51.464;-0.150;2023-02-15T08:11:37;59;54;
49064;PMS5003;34876;51.464;-0.150;2023-02-15T08:14:07;62;54;
49064;PMS5003;34876;51.464;-0.150;2023-02-15T08:16:39;53;49;
49064;PMS5003;34876;51.464;-0.150;2023-02-15T08:19:10;56;53;
49064;PMS5003;34876;51.464;-0.150;2023-02-15T08:21:41;56;53;
49064;PMS5003;34876;51.464;-0.150;2023-02-15T08:24:12;57;49;
49064;PMS5003;34876;51.464;-0.150;2023-02-15T08:26:42;59;51;
49064;PMS5003;34876;51.464;-0.150;2023-02-15T08:29:11;53;49;
49064;PMS5003;34876;51.464;-0.150;2023-02-15T08:31:41;60;53;
49064;PMS5003;34876;51.464;-0.150;2023-02-15T08:34:11;59;56;
49064;PMS5003;34876;51.464;-0.150;2023-02-15T08:36:44;60;53;
49064;PMS5003;34876;51.464;-0.150;2023-02-15T08:39:13;57;55;
49064;PMS5003;34876;51.464;-0.150;2023-02-15T08:41:43;60;58;
49064;PMS5003;34876;51.464;-0.150;2023-02-15T08:44:14;61;55;
49064;PMS5003;34876;51.464;-0.150;2023-02-15T08:46:44;63;57;
49064;PMS5003;34876;51.464;-0.150;2023-02-15T08:49:18;68;57;
49064;PMS5003;34876;51.464;-0.150;2023-02-15T08:51:48;56;53;
49064;PMS5003;34876;51.464;-0.150;2023-02-15T08:54:18;57;52;
49064;PMS5003;34876;51.464;-0.150;2023-02-15T08:56:49;61;55;
49064;PMS5003;34876;51.464;-0.150;2023-02-15T08:59:18;58;53;
49064;PMS5003;34876;51.464;-0.150;2023-02-15T09:01:49;66;58;
49064;PMS5003;34876;51.464;-0.150;2023-02-15T09:04:20;64;62;
49064;PMS5003;34876;51.464;-0.150;2023-02-15T09:06:50;69;63;
49064;PMS5003;34876;51.464;-0.150;2023-02-15T09:09:20;61;58;
49064;PMS5003;34876;51.464;-0.150;2023-02-15T09:11:50;66;62;
49064;PMS5003;34876;51.464;-0.150;2023-02-15T09:14:25;66;58;
49064;PMS5003;34876;51.464;-0.150;2023-02-15T09:16:55;60;58;
49064;PMS5003;34876;51.464;-0.150;2023-02-15T09:19:26;63;59;
49064;PMS5003;34876;51.464;-0.150;2023-02-15T09:21:54;65;58;
49064;PMS5003;34876;51.464;-0.150;2023-02-15T09:24:23;61;57;
49064;PMS5003;34876;51.464;-0.150;2023-02-15T09:26:52;67;64;
49064;PMS5003;34876;51.464;-0.150;2023-02-15T09:29:21;65;62;
49064;PMS5003;34876;51.464;-0.150;2023-02-15T09:31:50;63;59;
49064;PMS5003;34876;51.464;-0.150;2023-02-15T09:34:20;72;65;
49064;PMS5003;34876;51.464;-0.150;2023-02-15T09:36:51;63;58;
49064;PMS5003;34876;51.464;-0.150;2023-02-15T09:39:21;59;56;
49064;PMS5003;34876;51.464;-0.150;2023-02-15T09:43:00;63;59;
49064;PMS5003;34876;51.464;-0.150;2023-02-15T09:45:51;58;53;
49064;PMS5003;34876;51.464;-0.150;2023-02-15T09:48:38;60;57;
49064;PMS5003;34876;51.464;-0.150;2023-02-15T09:51:15;56;52;
49064;PMS5003;34876;51.464;-0.150;2023-02-15T09:54:04;62;57;
49064;PMS5003;34876;51.464;-0.150;2023-02-15T09:56:42;63;57;
49064;PMS5003;34876;51.464;-0.150;2023-02-15T09:59:19;69;64;
49064;PMS5003;34876;51.464;-0.150;2023-02-15T10:01:59;62;61;
49064;PMS5003;34876;51.464;-0.150;2023-02-15T10:04:44;66;61;
49064;PMS5003;34876;51.464;-0.150;2023-02-15T10:07:29;64;58;
49064;PMS5003;34876;51.464;-0.150;2023-02-15T10:10:17;64;57;
49064;PMS5003;34876;51.464;-0.150;2023-02-15T10:10:30;61;55;
49064;PMS5003;34876;51.464;-0.150;2023-02-15T10:13:13;57;55;
49064;PMS5003;34876;51.464;-0.150;2023-02-15T10:16:00;65;57;
49064;PMS5003;34876;51.464;-0.150;2023-02-15T10:18:50;59;54;
49064;PMS5003;34876;51.464;-0.150;2023-02-15T10:21:31;52;51;
49064;PMS5003;34876;51.464;-0.150;2023-02-15T10:24:23;61;61;
49064;PMS5003;34876;51.464;-0.150;2023-02-15T10:27:07;61;57;
49064;PMS5003;34876;51.464;-0.150;2023-02-15T10:29:42;59;55;
49064;PMS5003;34876;51.464;-0.150;2023-02-15T10:32:21;68;61;
49064;PMS5003;34876;51.464;-0.150;2023-02-15T10:34:52;59;56;
49064;PMS5003;34876;51.464;-0.150;2023-02-15T10:37:35;60;54;
49064;PMS5003;34876;51.464;-0.150;2023-02-15T10:40:18;64;59;
49064;PMS5003;34876;51.464;-0.150;2023-02-15T10:43:01;66;59;
49064;PMS5003;34876;51.464;-0.150;2023-02-15T10:45:45;60;56;
49064;PMS5003;34876;51.464;-0.150;2023-02-15T10:48:29;59;57;
49064;PMS5003;34876;51.464;-0.150;2023-02-15T10:51:13;61;58;
49064;PMS5003;34876;51.464;-0.150;2023-02-15T10:53:54;63;60;
49064;PMS5003;34876;51.464;-0.150;2023-02-15T10:56:36;60;54;
49064;PMS5003;34876;51.464;-0.150;2023-02-15T10:59:18;66;58;
49064;PMS5003;34876;51.464;-0.150;2023-02-15T11:01:59;64;58;
49064;PMS5003;34876;51.464;-0.150;2023-02-15T11:04:39;61;55;
49064;PMS5003;34876;51.464;-0.150;2023-02-15T11:07:17;60;55;
49064;PMS5003;34876;51.464;-0.150;2023-02-15T11:09:51;65;58;
49064;PMS5003;34876;51.464;-0.150;2023-02-15T11:12:33;64;60;
49064;PMS5003;34876;51.464;-0.150;2023-02-15T11:15:04;58;52;
49064;PMS5003;34876;51.464;-0.150;2023-02-15T11:17:46;65;62;
49064;PMS5003;34876;51.464;-0.150;2023-02-15T11:20:21;72;62;
49064;PMS5003;34876;51.464;-0.150;2023-02-15T11:22:57;68;62;
49064;PMS5003;34876;51.464;-0.150;2023-02-15T11:25:29;67;60;
49064;PMS5003;34876;51.464;-0.150;2023-02-15T11:28:00;63;58;
49064;PMS5003;34876;51.464;-0.150;2023-02-15T11:30:41;64;57;
49064;PMS5003;34876;51.464;-0.150;2023-02-15T11:33:14;66;58;
49064;PMS5003;34876;51.464;-0.150;2023-02-15T11:35:49;63;58;
49064;PMS5003;34876;51.464;-0.150;2023-02-15T11:38:23;57;53;
49064;PMS5003;34876;51.464;-0.150;2023-02-15T11:40:57;61;56;
49064;PMS5003;34876;51.464;-0.150;2023-02-15T11:43:32;68;64;
49064;PMS5003;34876;51.464;-0.150;2023-02-15T11:46:06;62;56;
49064;PMS5003;34876;51.464;-0.150;2023-02-15T11:48:40;64;60;
49064;PMS5003;34876;51.464;-0.150;2023-02-15T11:51:14;64;57;
49064;PMS5003;34876;51.464;-0.150;2023-02-15T11:53:46;61;57;
49064;PMS5003;34876;51.464;-0.150;2023-02-15T11:56:19;65;59;
49064;PMS5003;34876;51.464;-0.150;2023-02-15T11:58:52;69;64;
49064;PMS5003;34876;51.464;-0.150;2023-02-15T12:01:28;61;58;
49064;PMS5003;34876;51.464;-0.150;2023-02-15T12:04:04;61;52;
49064;PMS5003;34876;51.464;-0.150;2023-02-15T12:06:41;62;60;
49064;PMS5003;34876;51.464;-0.150;2023-02-15T12:09:22;66;62;
49064;PMS5003;34876;51.464;-0.150;2023-02-15T12:12:19;64;57;
49064;PMS5003;34876;51.464;-0.150;2023-02-15T12:14:50;62;56;
49064;PMS5003;34876;51.464;-0.150;2023-02-15T12:17:21;61;56;
49064;PMS5003;34876;51.464;-0.150;2023-02-15T12:19:54;67;64;
49064;PMS5003;34876;51.464;-0.150;2023-02-15T12:22:29;61;55;
49064;PMS5003;34876;51.464;-0.150;2023-02-15T12:25:02;68;61;
49064;PMS5003;34876;51.464;-0.150;2023-02-15T12:27:50;67;58;
49064;PMS5003;34876;51.464;-0.150;2023-02-15T12:30:22;66;58;
49064;PMS5003;34876;51.464;-0.150;2023-02-15T12:32:56;56;56;
49064;PMS5003;34876;51.464;-0.150;2023-02-15T12:35:31;63;59;
49064;PMS5003;34876;51.464;-0.150;2023-02-15T12:38:04;60;59;
49064;PMS5003;34876;51.464;-0.150;2023-02-15T12:40:56;64;60;
49064;PMS5003;34876;51.464;-0.150;2023-02-15T12:43:27;66;59;
49064;PMS5003;34876;51.464;-0.150;2023-02-15T12:46:12;63;60;
49064;PMS5003;34876;51.464;-0.150;2023-02-15T12:49:07;67;62;
49064;PMS5003;34876;51.464;-0.150;2023-02-15T12:51:45;58;54;
49064;PMS5003;34876;51.464;-0.150;2023-02-15T12:54:16;63;58;
49064;PMS5003;34876;51.464;-0.150;2023-02-15T12:56:46;68;64;
49064;PMS5003;34876;51.464;-0.150;2023-02-15T12:59:14;62;57;
49064;PMS5003;34876;51.464;-0.150;2023-02-15T13:01:50;73;61;
49064;PMS5003;34876;51.464;-0.150;2023-02-15T13:04:22;68;63;
49064;PMS5003;34876;51.464;-0.150;2023-02-15T13:06:56;64;58;
49064;PMS5003;34876;51.464;-0.150;2023-02-15T13:09:34;66;59;
49064;PMS5003;34876;51.464;-0.150;2023-02-15T13:12:10;66;60;
49064;PMS5003;34876;51.464;-0.150;2023-02-15T13:14:47;66;61;
49064;PMS5003;34876;51.464;-0.150;2023-02-15T13:17:19;61;57;
49064;PMS5003;34876;51.464;-0.150;2023-02-15T13:19:53;72;68;
49064;PMS5003;34876;51.464;-0.150;2023-02-15T13:22:24;67;62;
49064;PMS5003;34876;51.464;-0.150;2023-02-15T13:24:57;68;62;
49064;PMS5003;34876;51.464;-0.150;2023-02-15T13:27:34;65;57;
49064;PMS5003;34876;51.464;-0.150;2023-02-15T13:30:13;70;63;
49064;PMS5003;34876;51.464;-0.150;2023-02-15T13:32:48;73;65;
49064;PMS5003;34876;51.464;-0.150;2023-02-15T13:35:20;65;62;
49064;PMS5003;34876;51.464;-0.150;2023-02-15T13:37:58;65;63;
49064;PMS5003;34876;51.464;-0.150;2023-02-15T13:40:36;74;66;
49064;PMS5003;34876;51.464;-0.150;2023-02-15T13:43:15;62;58;
49064;PMS5003;34876;51.464;-0.150;2023-02-15T13:45:57;65;60;
49064;PMS5003;34876;51.464;-0.150;2023-02-15T13:48:43;63;59;
49064;PMS5003;34876;51.464;-0.150;2023-02-15T13:51:21;75;67;
49064;PMS5003;34876;51.464;-0.150;2023-02-15T13:54:01;66;59;
49064;PMS5003;34876;51.464;-0.150;2023-02-15T13:56:49;66;57;
49064;PMS5003;34876;51.464;-0.150;2023-02-15T13:59:29;72;65;
49064;PMS5003;34876;51.464;-0.150;2023-02-15T14:02:24;70;60;
49064;PMS5003;34876;51.464;-0.150;2023-02-15T14:05:14;63;59;
49064;PMS5003;34876;51.464;-0.150;2023-02-15T14:07:56;66;62;
49064;PMS5003;34876;51.464;-0.150;2023-02-15T14:10:38;64;57;
49064;PMS5003;34876;51.464;-0.150;2023-02-15T14:13:24;65;61;
49064;PMS5003;34876;51.464;-0.150;2023-02-15T14:16:08;63;60;
49064;PMS5003;34876;51.464;-0.150;2023-02-15T14:18:46;60;58;
49064;PMS5003;34876;51.464;-0.150;2023-02-15T14:21:21;60;58;
49064;PMS5003;34876;51.464;-0.150;2023-02-15T14:24:00;63;60;
49064;PMS5003;34876;51.464;-0.150;2023-02-15T14:26:47;63;58;
49064;PMS5003;34876;51.464;-0.150;2023-02-15T14:29:25;63;60;
49064;PMS5003;34876;51.464;-0.150;2023-02-15T14:32:04;64;60;
49064;PMS5003;34876;51.464;-0.150;2023-02-15T14:34:42;68;58;
49064;PMS5003;34876;51.464;-0.150;2023-02-15T14:37:19;62;56;
49064;PMS5003;34876;51.464;-0.150;2023-02-15T14:39:57;67;60;
49064;PMS5003;34876;51.464;-0.150;2023-02-15T14:42:34;73;67;
49064;PMS5003;34876;51.464;-0.150;2023-02-15T14:45:15;61;57;
49064;PMS5003;34876;51.464;-0.150;2023-02-15T14:47:53;67;61;
49064;PMS5003;34876;51.464;-0.150;2023-02-15T14:50:48;71;65;
49064;PMS5003;34876;51.464;-0.150;2023-02-15T14:53:35;61;59;
49064;PMS5003;34876;51.464;-0.150;2023-02-15T14:56:06;70;65;
49064;PMS5003;34876;51.464;-0.150;2023-02-15T14:59:18;70;61;
49064;PMS5003;34876;51.464;-0.150;2023-02-15T15:01:52;69;63;
49064;PMS5003;34876;51.464;-0.150;2023-02-15T15:04:27;67;61;
49064;PMS5003;34876;51.464;-0.150;2023-02-15T15:07:03;65;60;
49064;PMS5003;34876;51.464;-0.150;2023-02-15T15:09:37;66;58;
49064;PMS5003;34876;51.464;-0.150;2023-02-15T15:12:52;64;59;
49064;PMS5003;34876;51.464;-0.150;2023-02-15T15:15:44;69;63;
49064;PMS5003;34876;51.464;-0.150;2023-02-15T15:18:42;70;63;
49064;PMS5003;34876;51.464;-0.150;2023-02-15T15:21:51;64;62;
49064;PMS5003;34876;51.464;-0.150;2023-02-15T15:24:59;59;54;
49064;PMS5003;34876;51.464;-0.150;2023-02-15T15:27:38;56;53;
49064;PMS5003;34876;51.464;-0.150;2023-02-15T15:30:47;61;57;
49064;PMS5003;34876;51.464;-0.150;2023-02-15T15:35:35;62;58;
49064;PMS5003;34876;51.464;-0.150;2023-02-15T15:38:22;66;64;
49064;PMS5003;34876;51.464;-0.150;2023-02-15T15:41:16;65;59;
49064;PMS5003;34876;51.464;-0.150;2023-02-15T15:44:30;61;59;
49064;PMS5003;34876;51.464;-0.150;2023-02-15T15:47:35;63;58;
49064;PMS5003;34876;51.464;-0.150;2023-02-15T15:50:15;61;58;
49064;PMS5003;34876;51.464;-0.150;2023-02-15T15:52:46;65;58;
49064;PMS5003;34876;51.464;-0.150;2023-02-15T15:55:24;72;63;
49064;PMS5003;34876;51.464;-0.150;2023-02-15T15:57:58;62;58;
49064;PMS5003;34876;51.464;-0.150;2023-02-15T16:00:34;65;61;
49064;PMS5003;34876;51.464;-0.150;2023-02-15T16:03:12;66;60;
49064;PMS5003;34876;51.464;-0.150;2023-02-15T16:05:43;65;58;
49064;PMS5003;34876;51.464;-0.150;2023-02-15T16:08:14;66;60;
49064;PMS5003;34876;51.464;-0.150;2023-02-15T16:10:54;65;63;
49064;PMS5003;34876;51.464;-0.150;2023-02-15T16:13:24;58;56;
49064;PMS5003;34876;51.464;-0.150;2023-02-15T16:15:56;72;71;
49064;PMS5003;34876;51.464;-0.150;2023-02-15T16:18:26;67;63;
49064;PMS5003;34876;51.464;-0.150;2023-02-15T16:20:58;68;66;
49064;PMS5003;34876;51.464;-0.150;2023-02-15T16:23:48;59;58;
49064;PMS5003;34876;51.464;-0.150;2023-02-15T16:26:35;67;63;
49064;PMS5003;34876;51.464;-0.150;2023-02-15T16:29:18;63;63;
49064;PMS5003;34876;51.464;-0.150;2023-02-15T16:31:58;71;64;
49064;PMS5003;34876;51.464;-0.150;2023-02-15T16:34:29;69;61;
49064;PMS5003;34876;51.464;-0.150;2023-02-15T16:37:12;65;64;
49064;PMS5003;34876;51.464;-0.150;2023-02-15T16:39:55;70;63;
49064;PMS5003;34876;51.464;-0.150;2023-02-15T16:42:26;65;62;
49064;PMS5003;34876;51.464;-0.150;2023-02-15T16:44:56;67;61;
49064;PMS5003;34876;51.464;-0.150;2023-02-15T16:47:38;77;68;
49064;PMS5003;34876;51.464;-0.150;2023-02-15T16:50:16;63;60;
49064;PMS5003;34876;51.464;-0.150;2023-02-15T16:52:47;67;60;
49064;PMS5003;34876;51.464;-0.150;2023-02-15T16:55:19;64;61;
49064;PMS5003;34876;51.464;-0.150;2023-02-15T16:57:51;70;62;